Time;durP1;ratioP1;P1;durP2;ratioP2;P2;SDS_P1;SDS_P2;PMS_P1;PMS_P2;Temp;Humidity;BMP_temperature;BMP_pressure;BME280_temperature;BME280_humidity;BME280_pressure;Samples;Min_cycle;Max_cycle;Signal;HPM_P1;HPM_P2
2024/01/30 00:02:13;;;;;;;8.73;6.72;;;20.20;67.50;;;;;;5010628;28;20207;-83
2024/01/30 00:04:39;;;;;;;7.57;5.93;;;20.20;67.40;;;;;;5009190;28;20200;-84
2024/01/30 00:07:08;;;;;;;8.95;5.82;;;20.20;67.70;;;;;;5011383;28;21824;-81
2024/01/30 00:09:34;;;;;;;6.07;5.47;;;20.20;67.80;;;;;;5005966;28;20208;-82
2024/01/30 00:12:01;;;;;;;8.23;5.95;;;20.20;67.20;;;;;;5006814;28;20204;-84
2024/01/30 00:14:28;;;;;;;5.65;5.13;;;20.10;67.20;;;;;;5009201;28;20219;-80
2024/01/30 00:16:54;;;;;;;6.78;5.97;;;20.10;68.10;;;;;;5013095;28;21083;-82
2024/01/30 00:19:21;;;;;;;7.18;5.38;;;20.10;67.30;;;;;;5011387;28;20207;-84
2024/01/30 00:21:48;;;;;;;9.07;6.25;;;20.10;67.80;;;;;;5019853;28;20689;-81
2024/01/30 00:24:17;;;;;;;7.03;5.18;;;20.10;67.60;;;;;;5017508;28;20203;-84
2024/01/30 00:26:44;;;;;;;6.10;4.85;;;20.10;67.70;;;;;;5018637;28;20682;-81
2024/01/30 00:29:10;;;;;;;7.13;5.30;;;20.10;67.50;;;;;;5011730;28;20200;-80
2024/01/30 00:31:37;;;;;;;5.50;5.00;;;20.10;67.70;;;;;;5016904;28;20728;-80
2024/01/30 00:34:04;;;;;;;6.45;5.07;;;20.10;67.50;;;;;;5016284;28;20231;-78
2024/01/30 00:36:30;;;;;;;6.20;5.13;;;20.10;68.80;;;;;;5006092;28;20203;-77
2024/01/30 00:38:57;;;;;;;7.20;5.40;;;20.10;68.80;;;;;;5007776;28;20199;-78
2024/01/30 00:41:26;;;;;;;6.72;5.60;;;20.10;68.90;;;;;;5017472;28;21126;-78
2024/01/30 00:43:53;;;;;;;6.35;4.70;;;20.10;68.90;;;;;;5010500;28;20314;-80
2024/01/30 00:46:20;;;;;;;7.63;5.50;;;20.00;69.30;;;;;;5010029;28;20203;-79
2024/01/30 00:48:47;;;;;;;6.70;4.95;;;20.00;69.20;;;;;;5012287;28;20203;-84
2024/01/30 00:51:13;;;;;;;7.25;5.10;;;20.10;69.60;;;;;;5016841;28;20231;-80
2024/01/30 00:53:41;;;;;;;7.22;4.93;;;20.10;69.60;;;;;;5010346;28;20200;-79
2024/01/30 00:56:08;;;;;;;4.45;4.00;;;20.10;69.10;;;;;;5003549;28;20255;-81
2024/01/30 00:58:36;;;;;;;5.30;4.80;;;20.10;68.90;;;;;;5009022;28;20254;-81
2024/01/30 01:01:03;;;;;;;6.63;4.75;;;20.10;69.00;;;;;;5013498;28;20222;-80
2024/01/30 01:03:30;;;;;;;6.15;4.63;;;20.10;69.10;;;;;;5014288;28;20203;-80
2024/01/30 01:05:57;;;;;;;5.72;4.85;;;20.10;68.80;;;;;;5008247;28;20656;-80
2024/01/30 01:08:23;;;;;;;5.15;4.25;;;20.10;68.90;;;;;;5008835;28;20210;-81
2024/01/30 01:10:50;;;;;;;6.22;4.88;;;20.10;69.20;;;;;;5008289;28;20212;-82
2024/01/30 01:13:17;;;;;;;5.20;4.80;;;20.10;68.80;;;;;;5007923;28;20275;-81
2024/01/30 01:15:45;;;;;;;6.38;4.80;;;20.10;68.70;;;;;;5008274;28;20220;-80
2024/01/30 01:18:12;;;;;;;6.50;4.40;;;20.10;68.60;;;;;;5001481;28;20208;-81
2024/01/30 01:20:38;;;;;;;6.38;4.93;;;20.10;68.50;;;;;;5018934;28;20693;-79
2024/01/30 01:23:05;;;;;;;7.00;5.57;;;20.10;68.60;;;;;;5019924;28;20200;-81
2024/01/30 01:25:32;;;;;;;8.32;4.63;;;20.10;68.50;;;;;;5017091;28;20550;-81
2024/01/30 01:28:01;;;;;;;5.55;5.00;;;20.10;68.70;;;;;;5018349;28;20211;-80
2024/01/30 01:30:29;;;;;;;4.90;4.25;;;20.10;68.70;;;;;;5017226;28;20208;-80
2024/01/30 01:33:00;;;;;;;5.90;4.38;;;20.10;68.70;;;;;;5012557;28;20219;-80
2024/01/30 01:35:27;;;;;;;4.78;4.00;;;20.10;68.40;;;;;;5014749;28;20698;-80
2024/01/30 01:37:55;;;;;;;7.28;4.35;;;20.10;68.40;;;;;;5013510;28;20211;-80
2024/01/30 01:40:23;;;;;;;6.03;4.70;;;20.10;68.50;;;;;;5012024;28;20211;-81
2024/01/30 01:42:52;;;;;;;4.88;4.35;;;20.10;68.40;;;;;;5012186;28;20203;-80
2024/01/30 01:45:19;;;;;;;5.75;4.72;;;20.10;68.30;;;;;;5011007;28;20250;-81
2024/01/30 01:47:49;;;;;;;5.85;4.38;;;20.10;69.40;;;;;;5017860;28;20750;-80
2024/01/30 01:50:19;;;;;;;4.80;3.95;;;20.10;68.70;;;;;;5020440;28;20278;-81
2024/01/30 01:52:48;;;;;;;5.38;4.07;;;20.20;68.60;;;;;;5019904;28;20242;-80
2024/01/30 01:55:17;;;;;;;6.07;4.40;;;20.10;68.30;;;;;;5017874;28;20223;-81
2024/01/30 01:57:44;;;;;;;6.07;4.40;;;20.10;68.30;;;;;;5013407;28;20558;-81
2024/01/30 02:00:12;;;;;;;5.65;4.30;;;20.10;68.50;;;;;;5014317;28;20199;-80
2024/01/30 02:02:40;;;;;;;5.07;4.10;;;20.20;68.50;;;;;;5012193;28;20210;-83
2024/01/30 02:05:07;;;;;;;3.72;3.42;;;20.20;68.40;;;;;;5012318;28;21201;-79
2024/01/30 02:07:35;;;;;;;4.15;3.75;;;20.20;68.40;;;;;;5018310;28;20342;-81
2024/01/30 02:10:03;;;;;;;5.80;4.68;;;20.10;68.10;;;;;;5010448;28;20215;-79
2024/01/30 02:12:30;;;;;;;5.25;4.20;;;20.10;68.10;;;;;;5012154;28;20663;-80
2024/01/30 02:14:57;;;;;;;4.82;4.32;;;20.20;68.30;;;;;;5011161;28;20654;-80
2024/01/30 02:17:25;;;;;;;5.03;4.50;;;20.10;68.20;;;;;;5011903;28;20307;-81
2024/01/30 02:19:52;;;;;;;4.95;3.63;;;20.20;68.20;;;;;;5014915;28;20662;-80
2024/01/30 02:22:21;;;;;;;4.07;3.78;;;20.20;68.20;;;;;;5006679;28;20199;-81
2024/01/30 02:24:47;;;;;;;6.32;4.15;;;20.20;69.20;;;;;;5011415;28;20211;-80
2024/01/30 02:27:14;;;;;;;4.30;3.90;;;20.20;68.30;;;;;;5008743;28;20212;-82
2024/01/30 02:29:42;;;;;;;4.28;3.88;;;20.20;68.10;;;;;;5010838;28;20196;-79
2024/01/30 02:32:08;;;;;;;4.10;3.33;;;20.20;68.00;;;;;;5011746;28;20671;-81
2024/01/30 02:34:35;;;;;;;6.75;4.55;;;20.20;68.20;;;;;;5015041;28;20223;-80
2024/01/30 02:37:02;;;;;;;4.47;3.55;;;20.20;68.30;;;;;;5015013;28;20200;-81
2024/01/30 02:39:30;;;;;;;5.45;4.43;;;20.20;68.00;;;;;;5005834;28;20669;-82
2024/01/30 02:41:57;;;;;;;4.28;3.80;;;20.20;67.90;;;;;;5019590;28;20215;-79
2024/01/30 02:44:23;;;;;;;4.55;3.50;;;20.20;68.10;;;;;;5021226;28;20207;-80
2024/01/30 02:46:50;;;;;;;4.35;3.88;;;20.20;68.10;;;;;;5013390;28;21317;-81
2024/01/30 02:49:17;;;;;;;4.07;3.40;;;20.20;68.00;;;;;;5012381;28;20203;-80
2024/01/30 02:51:44;;;;;;;3.90;3.50;;;20.20;68.00;;;;;;5011068;28;20203;-80
2024/01/30 02:54:10;;;;;;;5.57;3.90;;;20.20;68.00;;;;;;5013058;28;20203;-80
2024/01/30 02:56:38;;;;;;;6.15;4.13;;;20.20;68.30;;;;;;5007939;28;20227;-79
2024/01/30 02:59:06;;;;;;;4.38;3.55;;;20.20;68.00;;;;;;5014605;28;20203;-80
2024/01/30 03:01:33;;;;;;;4.40;3.33;;;20.20;68.10;;;;;;5012329;28;20587;-80
2024/01/30 03:03:59;;;;;;;4.80;3.63;;;20.20;67.90;;;;;;5007552;28;20210;-80
2024/01/30 03:06:26;;;;;;;4.85;3.58;;;20.20;67.90;;;;;;5011770;28;20671;-80
2024/01/30 03:08:53;;;;;;;4.65;3.15;;;20.20;68.20;;;;;;5010337;28;20195;-79
2024/01/30 03:11:19;;;;;;;4.30;3.90;;;20.20;68.10;;;;;;5012702;28;20210;-80
2024/01/30 03:13:47;;;;;;;4.10;3.75;;;20.20;68.00;;;;;;5012836;28;21259;-81
2024/01/30 03:16:14;;;;;;;4.07;3.42;;;20.20;67.80;;;;;;5009409;28;20227;-81
2024/01/30 03:18:41;;;;;;;5.50;3.88;;;20.20;67.80;;;;;;5014708;28;20204;-80
2024/01/30 03:21:07;;;;;;;4.95;3.53;;;20.20;67.80;;;;;;5017458;28;20291;-81
2024/01/30 03:23:34;;;;;;;6.03;3.60;;;20.20;67.80;;;;;;5018169;28;20667;-80
2024/01/30 03:26:01;;;;;;;4.10;3.22;;;20.20;68.00;;;;;;5015863;28;20202;-80
2024/01/30 03:28:28;;;;;;;3.55;3.25;;;20.20;67.80;;;;;;5019326;28;20208;-80
2024/01/30 03:30:56;;;;;;;5.40;3.97;;;20.20;67.90;;;;;;5011184;28;20200;-81
2024/01/30 03:33:22;;;;;;;4.15;3.55;;;20.30;68.10;;;;;;5014494;28;20650;-81
2024/01/30 03:35:49;;;;;;;3.95;3.42;;;20.20;67.80;;;;;;5019606;28;20227;-80
2024/01/30 03:38:16;;;;;;;5.28;3.85;;;20.20;67.90;;;;;;5020053;28;20199;-80
2024/01/30 03:40:42;;;;;;;3.38;3.08;;;20.20;68.00;;;;;;5014771;28;20211;-80
2024/01/30 03:43:09;;;;;;;3.15;2.78;;;20.20;68.00;;;;;;5012145;28;20199;-80
2024/01/30 03:45:36;;;;;;;3.55;3.15;;;20.20;67.80;;;;;;5016350;28;20191;-80
2024/01/30 03:48:05;;;;;;;3.85;2.83;;;20.20;67.80;;;;;;5014155;28;20291;-81
2024/01/30 03:50:34;;;;;;;3.85;3.42;;;20.20;67.70;;;;;;5016324;28;20204;-80
2024/01/30 03:53:00;;;;;;;4.15;3.75;;;20.20;67.80;;;;;;5015729;28;20227;-82
2024/01/30 03:55:27;;;;;;;3.33;3.03;;;20.20;67.80;;;;;;5014396;28;20223;-80
2024/01/30 03:57:56;;;;;;;4.10;3.08;;;20.20;67.70;;;;;;5014031;28;21218;-79
2024/01/30 04:00:23;;;;;;;4.70;3.40;;;20.20;67.70;;;;;;5011411;28;20199;-80
2024/01/30 04:02:51;;;;;;;3.10;2.80;;;20.20;67.80;;;;;;5007357;28;20668;-81
2024/01/30 04:05:19;;;;;;;2.78;2.58;;;20.20;67.60;;;;;;5004894;28;20199;-80
2024/01/30 04:07:45;;;;;;;3.55;3.00;;;20.20;67.80;;;;;;5013666;28;20686;-81
2024/01/30 04:10:12;;;;;;;3.22;2.92;;;20.20;67.80;;;;;;5010604;28;20196;-80
2024/01/30 04:12:39;;;;;;;4.13;3.08;;;20.30;67.90;;;;;;5012441;28;21008;-80
2024/01/30 04:15:06;;;;;;;3.30;3.03;;;20.20;67.70;;;;;;5007617;28;20200;-80
2024/01/30 04:17:33;;;;;;;4.25;3.10;;;20.20;67.60;;;;;;5010274;28;20203;-79
2024/01/30 04:19:59;;;;;;;3.25;2.95;;;20.20;67.60;;;;;;5013499;28;20210;-79
2024/01/30 04:22:27;;;;;;;3.58;2.83;;;20.20;67.60;;;;;;5010910;28;20215;-81
2024/01/30 04:24:54;;;;;;;3.22;2.45;;;20.20;67.60;;;;;;5011224;28;20214;-80
2024/01/30 04:27:21;;;;;;;3.55;3.25;;;20.20;67.60;;;;;;5011031;28;20212;-80
2024/01/30 04:29:47;;;;;;;4.22;3.08;;;20.20;67.60;;;;;;5011390;28;20195;-80
2024/01/30 04:32:14;;;;;;;4.82;3.15;;;20.20;67.60;;;;;;5010133;28;20210;-80
2024/01/30 04:34:41;;;;;;;3.60;3.08;;;20.20;67.40;;;;;;5009590;28;22197;-81
2024/01/30 04:37:08;;;;;;;3.10;2.80;;;20.30;67.80;;;;;;5013598;28;20685;-80
2024/01/30 04:39:36;;;;;;;3.67;2.85;;;20.20;67.70;;;;;;5007023;28;20203;-81
2024/01/30 04:42:03;;;;;;;3.47;2.95;;;20.20;67.50;;;;;;5011063;28;20254;-79
2024/01/30 04:44:30;;;;;;;4.05;2.70;;;20.20;67.60;;;;;;5004555;28;20214;-79
2024/01/30 04:46:58;;;;;;;3.60;3.30;;;20.20;67.50;;;;;;5017635;28;20721;-80
2024/01/30 04:49:25;;;;;;;4.13;3.28;;;20.20;67.60;;;;;;5008017;28;20195;-79
2024/01/30 04:51:52;;;;;;;3.05;2.75;;;20.20;67.50;;;;;;5016539;28;20204;-80
2024/01/30 04:54:19;;;;;;;4.10;3.55;;;20.30;67.60;;;;;;5015279;28;20670;-79
2024/01/30 04:56:47;;;;;;;4.78;2.85;;;20.20;67.50;;;;;;5015212;28;20222;-81
2024/01/30 04:59:13;;;;;;;3.00;2.70;;;20.20;67.60;;;;;;5018016;28;20203;-79
2024/01/30 05:01:40;;;;;;;3.05;2.42;;;20.20;67.50;;;;;;5016800;28;20234;-80
2024/01/30 05:04:08;;;;;;;3.25;2.85;;;20.20;67.50;;;;;;5017519;28;20200;-82
2024/01/30 05:06:35;;;;;;;3.20;2.90;;;20.20;67.50;;;;;;5012631;28;21228;-79
2024/01/30 05:09:02;;;;;;;2.67;2.38;;;20.20;67.50;;;;;;5010875;28;20203;-80
2024/01/30 05:11:30;;;;;;;2.90;2.70;;;20.20;67.50;;;;;;5006558;28;20208;-82
2024/01/30 05:13:58;;;;;;;2.90;2.60;;;20.20;67.40;;;;;;5005243;28;20757;-80
2024/01/30 05:16:25;;;;;;;3.17;2.78;;;20.20;67.30;;;;;;5010240;28;20224;-82
2024/01/30 05:18:51;;;;;;;3.13;2.83;;;20.20;67.40;;;;;;5012877;28;20917;-81
2024/01/30 05:21:18;;;;;;;4.45;2.30;;;20.20;67.60;;;;;;5016894;28;20204;-81
2024/01/30 05:23:45;;;;;;;2.95;2.45;;;20.20;67.40;;;;;;5015577;28;20218;-81
2024/01/30 05:26:12;;;;;;;2.75;2.47;;;20.20;67.50;;;;;;5014740;28;20207;-80
2024/01/30 05:28:39;;;;;;;3.08;2.83;;;20.20;67.50;;;;;;5008748;28;20214;-80
2024/01/30 05:31:07;;;;;;;2.40;2.20;;;20.20;67.50;;;;;;5015188;28;20226;-79
2024/01/30 05:33:34;;;;;;;2.35;2.13;;;20.20;67.40;;;;;;5011732;28;20274;-80
2024/01/30 05:36:01;;;;;;;3.15;2.85;;;20.20;67.40;;;;;;5011658;28;21282;-79
2024/01/30 05:38:27;;;;;;;2.78;2.47;;;20.20;67.30;;;;;;5006810;28;20208;-80
2024/01/30 05:40:54;;;;;;;2.70;2.50;;;20.20;67.50;;;;;;5012220;28;20206;-81
2024/01/30 05:43:21;;;;;;;3.33;3.03;;;20.20;67.60;;;;;;5011292;28;20550;-80
2024/01/30 05:45:47;;;;;;;3.45;3.15;;;20.20;67.30;;;;;;5005682;28;20192;-82
2024/01/30 05:48:15;;;;;;;3.88;3.25;;;20.20;67.40;;;;;;5010834;28;20661;-82
2024/01/30 05:50:42;;;;;;;2.60;2.40;;;20.20;67.50;;;;;;5011169;28;20204;-81
2024/01/30 05:53:09;;;;;;;2.75;2.47;;;20.20;67.30;;;;;;5012193;28;20690;-81
2024/01/30 05:55:36;;;;;;;2.55;2.35;;;20.20;67.40;;;;;;5005889;28;20203;-81
2024/01/30 05:58:02;;;;;;;2.60;2.40;;;20.20;67.60;;;;;;5012971;28;20930;-82
2024/01/30 06:00:29;;;;;;;3.40;2.90;;;20.20;67.40;;;;;;5011052;28;20208;-82
2024/01/30 06:02:56;;;;;;;3.30;2.30;;;20.20;67.50;;;;;;5011144;28;20208;-81
2024/01/30 06:05:24;;;;;;;2.90;2.55;;;20.20;67.30;;;;;;5011134;28;20200;-81
2024/01/30 06:07:50;;;;;;;2.78;2.47;;;20.20;67.50;;;;;;5012954;28;20199;-80
2024/01/30 06:10:17;;;;;;;3.30;2.35;;;20.20;67.30;;;;;;5013285;28;20203;-80
2024/01/30 06:12:44;;;;;;;2.83;2.63;;;20.20;67.30;;;;;;5017680;28;20570;-80
2024/01/30 06:15:12;;;;;;;4.57;2.88;;;20.20;67.30;;;;;;5009367;28;20199;-82
2024/01/30 06:17:39;;;;;;;2.90;2.50;;;20.20;67.40;;;;;;5008851;28;20251;-81
2024/01/30 06:20:07;;;;;;;2.60;2.40;;;20.20;67.40;;;;;;5012871;28;20753;-82
2024/01/30 06:22:35;;;;;;;2.00;1.80;;;20.20;67.30;;;;;;5011989;28;20208;-81
2024/01/30 06:25:02;;;;;;;2.92;2.42;;;20.20;67.40;;;;;;5011981;28;20200;-80
2024/01/30 06:27:29;;;;;;;2.90;2.25;;;20.20;67.40;;;;;;5010869;28;20204;-80
2024/01/30 06:29:56;;;;;;;2.67;2.47;;;20.20;67.20;;;;;;5015081;28;20210;-81
2024/01/30 06:32:22;;;;;;;2.53;2.33;;;20.20;67.30;;;;;;5013077;28;20203;-81
2024/01/30 06:34:49;;;;;;;2.33;2.13;;;20.20;67.30;;;;;;5010567;28;20204;-81
2024/01/30 06:37:16;;;;;;;2.53;2.13;;;20.20;68.20;;;;;;5011850;28;20679;-85
2024/01/30 06:39:44;;;;;;;3.20;2.83;;;20.20;67.30;;;;;;5014852;28;20203;-84
2024/01/30 06:42:11;;;;;;;2.35;2.13;;;20.20;67.30;;;;;;5012471;28;20204;-83
2024/01/30 06:44:38;;;;;;;5.30;2.95;;;20.20;67.50;;;;;;5015301;28;20299;-83
2024/01/30 06:47:04;;;;;;;4.13;2.28;;;20.20;68.00;;;;;;5016689;28;20196;-81
2024/01/30 06:49:31;;;;;;;6.07;2.78;;;20.20;68.50;;;;;;5012086;28;20203;-83
2024/01/30 06:51:58;;;;;;;4.55;2.80;;;20.20;68.20;;;;;;5017412;28;20265;-82
2024/01/30 06:54:24;;;;;;;3.40;2.30;;;20.30;68.40;;;;;;5019377;28;20203;-79
2024/01/30 06:56:52;;;;;;;26.02;2.63;;;20.30;68.70;;;;;;5019738;28;20610;-81
2024/01/30 06:59:19;;;;;;;7.70;2.28;;;20.30;68.30;;;;;;5013602;28;20204;-80
2024/01/30 07:01:46;;;;;;;3.72;2.10;;;20.30;68.50;;;;;;5009962;28;20674;-82
2024/01/30 07:04:13;;;;;;;3.10;2.50;;;20.20;68.10;;;;;;5011832;28;20199;-82
2024/01/30 07:06:39;;;;;;;4.78;2.10;;;20.30;68.20;;;;;;5013420;28;20196;-82
2024/01/30 07:09:06;;;;;;;3.53;2.20;;;20.20;68.00;;;;;;5013587;28;20215;-81
2024/01/30 07:11:33;;;;;;;5.25;3.80;;;20.20;67.80;;;;;;5019532;28;20208;-80
2024/01/30 07:14:03;;;;;;;4.88;2.33;;;20.20;67.90;;;;;;5020442;28;20677;-82
2024/01/30 07:16:30;;;;;;;2.30;2.05;;;20.20;67.80;;;;;;5016921;28;20226;-80
2024/01/30 07:18:57;;;;;;;5.10;1.88;;;20.20;67.70;;;;;;5019207;28;20204;-80
2024/01/30 07:21:28;;;;;;;3.10;2.45;;;20.20;67.70;;;;;;5017269;28;20755;-80
2024/01/30 07:23:54;;;;;;;10.60;3.80;;;20.20;67.80;;;;;;5018488;28;20192;-82
2024/01/30 07:26:21;;;;;;;4.70;2.25;;;20.20;67.70;;;;;;5016012;28;20208;-80
2024/01/30 07:28:48;;;;;;;3.25;2.55;;;20.20;67.90;;;;;;5017331;28;20209;-81
2024/01/30 07:31:16;;;;;;;4.30;3.70;;;20.20;68.00;;;;;;5018388;28;20196;-82
2024/01/30 07:33:42;;;;;;;3.08;2.78;;;20.20;67.00;;;;;;5012409;28;20211;-82
2024/01/30 07:36:10;;;;;;;3.88;2.58;;;20.20;67.70;;;;;;5013417;28;20203;-82
2024/01/30 07:38:37;;;;;;;3.00;2.67;;;20.10;67.50;;;;;;5015333;28;20203;-83
2024/01/30 07:41:04;;;;;;;3.70;2.08;;;20.20;67.50;;;;;;5016238;28;21099;-81
2024/01/30 07:43:30;;;;;;;3.08;2.15;;;20.20;67.50;;;;;;5004426;28;20203;-82
2024/01/30 07:45:57;;;;;;;6.35;2.40;;;20.20;67.50;;;;;;5008879;28;20219;-82
2024/01/30 07:48:25;;;;;;;2.65;2.45;;;20.20;67.50;;;;;;5015367;28;20212;-81
2024/01/30 07:50:53;;;;;;;3.58;2.72;;;20.20;67.40;;;;;;5011775;28;20218;-82
2024/01/30 07:53:19;;;;;;;3.08;2.70;;;20.20;67.30;;;;;;5014178;28;20215;-81
2024/01/30 07:55:47;;;;;;;6.43;3.10;;;20.20;67.30;;;;;;5010675;28;20211;-82
2024/01/30 07:58:14;;;;;;;3.30;3.00;;;20.20;67.30;;;;;;5014396;28;20639;-82
2024/01/30 08:00:40;;;;;;;8.45;3.28;;;20.30;67.30;;;;;;5011409;28;21170;-83
2024/01/30 08:03:07;;;;;;;3.40;3.10;;;20.30;67.10;;;;;;5010928;28;20302;-83
2024/01/30 08:05:35;;;;;;;4.47;2.80;;;20.30;67.10;;;;;;5009787;28;20667;-82
2024/01/30 08:08:02;;;;;;;4.00;3.15;;;20.40;67.10;;;;;;5015424;28;20196;-82
2024/01/30 08:10:29;;;;;;;3.13;2.38;;;20.40;67.00;;;;;;5013244;28;20671;-82
2024/01/30 08:12:55;;;;;;;3.17;2.80;;;20.40;66.90;;;;;;5014456;28;20219;-82
2024/01/30 08:15:22;;;;;;;3.05;2.75;;;20.40;67.00;;;;;;5011358;28;20212;-82
2024/01/30 08:17:49;;;;;;;3.55;2.80;;;20.40;66.90;;;;;;5014289;28;20228;-82
2024/01/30 08:20:16;;;;;;;3.67;3.30;;;20.40;66.80;;;;;;5016335;28;20196;-81
2024/01/30 08:22:44;;;;;;;4.88;3.60;;;20.40;66.80;;;;;;5017664;28;20286;-82
2024/01/30 08:25:11;;;;;;;3.70;2.65;;;20.40;66.70;;;;;;5017616;28;20203;-81
2024/01/30 08:27:38;;;;;;;4.18;2.78;;;20.40;67.00;;;;;;5019176;28;20219;-81
2024/01/30 08:30:07;;;;;;;3.38;3.03;;;20.50;66.90;;;;;;5020363;28;20322;-81
2024/01/30 08:32:34;;;;;;;4.80;3.03;;;20.50;66.80;;;;;;5019604;28;20211;-81
2024/01/30 08:35:03;;;;;;;2.78;2.50;;;20.50;66.80;;;;;;5022088;28;20203;-80
2024/01/30 08:37:30;;;;;;;3.63;3.33;;;20.50;66.80;;;;;;5022616;28;20227;-82
2024/01/30 08:39:58;;;;;;;5.25;3.80;;;20.50;66.80;;;;;;5028211;28;20831;-82
2024/01/30 08:42:25;;;;;;;3.00;2.38;;;20.50;66.80;;;;;;5022047;28;20203;-81
2024/01/30 08:44:53;;;;;;;3.35;3.00;;;20.50;66.80;;;;;;5021974;28;20203;-82
2024/01/30 08:47:19;;;;;;;3.35;2.65;;;20.50;66.80;;;;;;5020985;28;20187;-82
2024/01/30 08:49:46;;;;;;;4.38;2.60;;;20.50;66.80;;;;;;5019165;28;20202;-81
2024/01/30 08:52:13;;;;;;;2.83;2.45;;;20.50;66.80;;;;;;5022222;28;20719;-81
2024/01/30 08:54:40;;;;;;;3.75;3.10;;;20.50;66.80;;;;;;5018775;28;20428;-81
2024/01/30 08:57:08;;;;;;;2.72;2.42;;;20.50;66.80;;;;;;5018890;28;20231;-81
2024/01/30 08:59:34;;;;;;;2.90;2.30;;;20.50;66.80;;;;;;5021568;28;20234;-81
2024/01/30 09:02:02;;;;;;;2.78;2.35;;;20.50;66.80;;;;;;5020736;28;20719;-82
2024/01/30 09:04:29;;;;;;;4.07;3.08;;;20.50;66.80;;;;;;5023399;28;20242;-81
2024/01/30 09:06:55;;;;;;;3.72;2.50;;;20.50;66.90;;;;;;5021680;28;20195;-81
2024/01/30 09:09:23;;;;;;;3.10;2.58;;;20.50;66.80;;;;;;5021106;28;20285;-81
2024/01/30 09:11:49;;;;;;;4.05;2.55;;;20.50;66.80;;;;;;5018757;28;20211;-82
2024/01/30 09:14:18;;;;;;;3.40;2.90;;;20.50;66.80;;;;;;5022663;28;20204;-81
2024/01/30 09:16:44;;;;;;;3.08;2.83;;;20.50;66.90;;;;;;5021634;28;20207;-82
2024/01/30 09:19:11;;;;;;;2.90;2.58;;;20.50;66.90;;;;;;5021034;28;20235;-82
2024/01/30 09:21:38;;;;;;;6.78;3.22;;;20.50;66.90;;;;;;5021618;28;20202;-79
2024/01/30 09:24:06;;;;;;;3.40;3.10;;;20.50;66.90;;;;;;5022083;28;20238;-82
2024/01/30 09:26:32;;;;;;;4.00;2.25;;;20.50;66.90;;;;;;5019017;28;20214;-83
2024/01/30 09:28:59;;;;;;;2.95;2.70;;;20.50;66.90;;;;;;5023115;28;20192;-80
2024/01/30 09:31:27;;;;;;;4.47;3.25;;;20.50;66.90;;;;;;5020299;28;20211;-82
2024/01/30 09:33:54;;;;;;;5.22;2.72;;;20.50;66.90;;;;;;5011582;28;20641;-81
2024/01/30 09:36:21;;;;;;;3.15;2.80;;;20.50;66.90;;;;;;5021994;28;20200;-81
2024/01/30 09:38:48;;;;;;;3.65;2.55;;;20.50;66.90;;;;;;5021690;28;20215;-80
2024/01/30 09:41:16;;;;;;;3.72;2.55;;;20.50;66.90;;;;;;5024768;28;20204;-81
2024/01/30 09:43:48;;;;;;;5.47;2.33;;;20.50;66.90;;;;;;5023736;28;21209;-81
2024/01/30 09:46:17;;;;;;;2.83;2.55;;;20.60;67.00;;;;;;5025414;28;20594;-80
2024/01/30 09:48:47;;;;;;;2.95;2.70;;;20.60;67.00;;;;;;5022942;28;20200;-82
2024/01/30 09:51:15;;;;;;;3.00;2.70;;;20.60;67.10;;;;;;5022598;28;20200;-80
2024/01/30 09:53:44;;;;;;;3.70;2.60;;;20.60;67.00;;;;;;5024641;28;20742;-82
2024/01/30 09:56:12;;;;;;;3.28;2.33;;;20.60;67.00;;;;;;5022305;28;20211;-81
2024/01/30 09:58:39;;;;;;;3.05;2.63;;;20.60;67.00;;;;;;5024338;28;20265;-81
2024/01/30 10:01:06;;;;;;;3.42;2.50;;;20.60;67.00;;;;;;5022848;28;20207;-82
2024/01/30 10:03:33;;;;;;;3.35;2.80;;;20.60;67.00;;;;;;5026389;28;20191;-82
2024/01/30 10:06:02;;;;;;;3.00;2.60;;;20.60;67.10;;;;;;5022113;28;20199;-80
2024/01/30 10:08:29;;;;;;;3.55;2.35;;;20.60;67.00;;;;;;5027037;28;20702;-82
2024/01/30 10:10:56;;;;;;;2.97;2.53;;;20.60;67.00;;;;;;5020856;28;20195;-79
2024/01/30 10:13:23;;;;;;;3.30;3.00;;;20.60;67.00;;;;;;5022993;28;20277;-81
2024/01/30 10:15:50;;;;;;;3.40;3.10;;;20.60;67.10;;;;;;5026837;28;20571;-81
2024/01/30 10:18:17;;;;;;;3.75;3.30;;;20.60;67.00;;;;;;5025200;28;20219;-80
2024/01/30 10:20:43;;;;;;;3.10;2.80;;;20.60;67.00;;;;;;5025437;28;20204;-80
2024/01/30 10:23:13;;;;;;;3.70;2.50;;;20.60;67.00;;;;;;5027481;28;20589;-81
2024/01/30 10:25:39;;;;;;;3.38;2.40;;;20.60;67.00;;;;;;5024946;28;20215;-82
2024/01/30 10:28:06;;;;;;;2.53;2.33;;;20.60;67.00;;;;;;5026668;28;20204;-81
2024/01/30 10:30:33;;;;;;;3.55;2.65;;;20.60;67.00;;;;;;5025187;28;20200;-81
2024/01/30 10:33:00;;;;;;;3.10;2.70;;;20.60;67.00;;;;;;5023985;28;20206;-81
2024/01/30 10:35:26;;;;;;;5.93;2.72;;;20.60;67.00;;;;;;5021632;28;20211;-82
2024/01/30 10:37:56;;;;;;;2.90;2.60;;;20.60;67.00;;;;;;5024942;28;20212;-81
2024/01/30 10:40:29;;;;;;;2.33;2.13;;;20.60;67.00;;;;;;5026635;28;20203;-82
2024/01/30 10:42:57;;;;;;;3.75;2.35;;;20.60;67.10;;;;;;5023944;28;20207;-82
2024/01/30 10:45:27;;;;;;;2.72;2.53;;;20.60;67.00;;;;;;5025839;28;20203;-82
2024/01/30 10:47:57;;;;;;;3.10;2.80;;;20.60;67.00;;;;;;5025660;28;20204;-81
2024/01/30 10:50:25;;;;;;;2.80;2.60;;;20.60;67.00;;;;;;5018663;28;20199;-82
2024/01/30 10:52:53;;;;;;;3.35;2.78;;;20.60;67.00;;;;;;5018869;28;20215;-83
2024/01/30 10:55:22;;;;;;;2.85;2.58;;;20.60;67.00;;;;;;5024054;28;20204;-80
2024/01/30 10:57:50;;;;;;;3.17;2.90;;;20.60;67.00;;;;;;5026141;28;20223;-81
2024/01/30 11:00:22;;;;;;;4.30;2.25;;;20.60;67.00;;;;;;5026815;28;20208;-81
2024/01/30 11:02:49;;;;;;;3.45;2.20;;;20.60;67.00;;;;;;5022919;28;20203;-82
2024/01/30 11:05:24;;;;;;;2.30;2.00;;;20.60;67.00;;;;;;5027113;28;20199;-82
2024/01/30 11:07:50;;;;;;;2.90;2.47;;;20.60;67.10;;;;;;5028615;28;20191;-81
2024/01/30 11:10:18;;;;;;;2.45;2.25;;;20.60;67.10;;;;;;5023116;28;20207;-81
2024/01/30 11:12:47;;;;;;;2.60;2.40;;;20.60;67.10;;;;;;5027930;28;20216;-82
2024/01/30 11:15:16;;;;;;;2.47;2.28;;;20.60;67.10;;;;;;5025097;28;20655;-82
2024/01/30 11:17:43;;;;;;;2.30;1.70;;;20.60;67.10;;;;;;5021536;28;20227;-81
2024/01/30 11:20:15;;;;;;;3.10;2.67;;;20.60;67.20;;;;;;5028371;28;20253;-82
2024/01/30 11:22:43;;;;;;;3.70;2.70;;;20.60;67.10;;;;;;5025814;28;20210;-81
2024/01/30 11:25:13;;;;;;;3.42;2.67;;;20.60;67.10;;;;;;5025589;28;20563;-82
2024/01/30 11:27:40;;;;;;;2.35;2.15;;;20.60;67.10;;;;;;5025077;28;20250;-81
2024/01/30 11:30:08;;;;;;;2.50;1.92;;;20.60;67.10;;;;;;5023324;28;20200;-82
2024/01/30 11:32:36;;;;;;;2.85;1.77;;;20.60;67.10;;;;;;5025877;28;20450;-82
2024/01/30 11:35:06;;;;;;;3.20;2.55;;;20.60;67.10;;;;;;5029820;28;20200;-82
2024/01/30 11:37:33;;;;;;;2.75;2.20;;;20.60;67.10;;;;;;5031276;28;20793;-80
2024/01/30 11:39:59;;;;;;;2.15;1.95;;;20.60;67.10;;;;;;5028182;28;20188;-81
2024/01/30 11:42:28;;;;;;;3.65;1.85;;;20.60;67.10;;;;;;5029035;28;20210;-82
2024/01/30 11:44:55;;;;;;;2.50;1.95;;;20.60;67.10;;;;;;5026629;28;20572;-80
2024/01/30 11:47:23;;;;;;;2.58;2.17;;;20.60;67.10;;;;;;5026417;28;20195;-81
2024/01/30 11:49:51;;;;;;;1.90;1.75;;;20.60;67.20;;;;;;5024946;28;20219;-81
2024/01/30 11:52:18;;;;;;;1.95;1.77;;;20.60;67.10;;;;;;5026460;28;20208;-81
2024/01/30 11:54:45;;;;;;;2.35;1.90;;;20.60;67.10;;;;;;5025852;28;20207;-81
2024/01/30 11:57:11;;;;;;;2.22;1.80;;;20.70;67.30;;;;;;5025862;28;20211;-80
2024/01/30 11:59:38;;;;;;;2.75;2.53;;;20.60;67.10;;;;;;5030187;28;20219;-82
2024/01/30 12:02:05;;;;;;;2.00;1.80;;;20.60;67.10;;;;;;5031314;28;20204;-81
2024/01/30 12:04:32;;;;;;;3.05;2.63;;;20.60;67.20;;;;;;5027150;28;20203;-81
2024/01/30 12:07:00;;;;;;;3.67;2.72;;;20.60;67.20;;;;;;5031364;28;20199;-81
2024/01/30 12:09:27;;;;;;;3.08;2.75;;;20.60;67.20;;;;;;5030544;28;20199;-82
2024/01/30 12:11:54;;;;;;;4.10;2.38;;;20.60;67.20;;;;;;5028075;28;20228;-82
2024/01/30 12:14:25;;;;;;;2.25;1.90;;;20.70;67.30;;;;;;5024819;28;20220;-82
2024/01/30 12:16:51;;;;;;;2.20;2.00;;;20.70;67.30;;;;;;5028401;28;20196;-81
2024/01/30 12:19:25;;;;;;;2.70;2.50;;;20.70;67.30;;;;;;5029172;28;20215;-80
2024/01/30 12:21:58;;;;;;;3.97;2.47;;;20.70;67.60;;;;;;5023698;28;20217;-81
2024/01/30 12:24:30;;;;;;;2.58;2.38;;;20.70;67.30;;;;;;5029021;28;20230;-81
2024/01/30 12:26:58;;;;;;;2.67;2.35;;;20.60;67.20;;;;;;5029150;28;20234;-80
2024/01/30 12:29:25;;;;;;;3.63;1.92;;;20.70;67.30;;;;;;5028586;28;20196;-80
2024/01/30 12:31:54;;;;;;;2.45;2.05;;;20.70;67.30;;;;;;5023847;28;20211;-81
2024/01/30 12:34:21;;;;;;;3.10;2.10;;;20.70;67.40;;;;;;5019697;28;20245;-81
2024/01/30 12:36:48;;;;;;;3.30;2.63;;;20.70;67.30;;;;;;5016391;28;20200;-82
2024/01/30 12:39:15;;;;;;;3.70;3.30;;;20.60;67.40;;;;;;5013356;28;20269;-81
2024/01/30 12:41:43;;;;;;;4.32;3.00;;;20.60;66.40;;;;;;5012474;28;20207;-79
2024/01/30 12:44:10;;;;;;;6.63;3.80;;;20.50;66.80;;;;;;5007425;28;20216;-81
2024/01/30 12:46:38;;;;;;;7.60;2.95;;;20.40;65.60;;;;;;5010955;28;20204;-87
2024/01/30 12:49:04;;;;;;;4.28;2.13;;;20.40;65.80;;;;;;5013453;28;20204;-83